Camperville, Canada
Current Conditions -  °F | °C
As of 3:00 AM on Sunday 26 Oct 2014 (Local Time) from CYDN Reporting Station
Broken Clouds Broken Clouds  
Wind Chill: 26°   Ceiling: 17000
Heat Index: 34°   Visibility: 9mi
Dew Point: 30°   Wind: 9mph
Humidity: 87%   Direction: 100°E
Pressure: 29.9"   Gusts: NA
Location:  52.02°N, 100.15°W
Report Text: CYDN 260800Z AUTO 10008KT 9SM BKN170 01/M01 A2990 RMK SLP137
Loading
Personal Weather Stations






























Interactive Weather Map
Tropical Storm Tracking
New forecast layout! Learn more

10-Day Weather Forecast

Advertisements
Track Severe Weather on mobile